Time;durP1;ratioP1;P1;durP2;ratioP2;P2;SDS_P1;SDS_P2;PMS_P1;PMS_P2;Temp;Humidity;BMP_temperature;BMP_pressure;BME280_temperature;BME280_humidity;BME280_pressure;Samples;Min_cycle;Max_cycle;Signal;HPM_P1;HPM_P2
2021/09/29 00:00:39;;;;;;;5.70;2.80;;;;;;;12.06;67.63;100436.17;27222;1218;3026424;-64
2021/09/29 00:03:08;;;;;;;5.70;2.80;;;;;;;11.96;68.03;100437.58;27186;1219;3048267;-69
2021/09/29 00:05:41;;;;;;;3.10;1.60;;;;;;;11.95;68.06;100435.50;27218;1218;3026608;-65
2021/09/29 00:08:10;;;;;;;3.40;1.60;;;;;;;12.49;67.05;100432.89;27205;1218;3026825;-72
2021/09/29 00:10:50;;;;;;;3.70;1.90;;;;;;;13.03;65.31;100433.48;27220;1218;3071067;-69
2021/09/29 00:13:45;;;;;;;4.40;2.10;;;;;;;13.08;64.69;100430.58;27196;1219;3049259;-67
2021/09/29 00:16:14;;;;;;;3.90;2.00;;;;;;;12.91;64.99;100431.36;27246;1218;3026294;-70
2021/09/29 00:18:43;;;;;;;4.10;2.10;;;;;;;12.64;65.63;100429.83;27241;1219;3070196;-70
2021/09/29 00:21:12;;;;;;;6.90;2.30;;;;;;;12.55;65.95;100431.19;27232;1219;3028908;-66
2021/09/29 00:23:42;;;;;;;7.70;2.40;;;;;;;12.41;66.63;100429.66;27197;1218;3052626;-70
2021/09/29 00:26:12;;;;;;;4.30;2.10;;;;;;;12.26;66.73;100428.48;27188;1218;3025978;-72
2021/09/29 00:28:41;;;;;;;4.00;2.10;;;;;;;12.17;67.06;100426.84;27221;1219;3026461;-71
2021/09/29 00:34:35;;;;;;;3.40;2.20;;;;;;;11.86;68.42;100427.84;27048;1222;3068151;-70
2021/09/29 00:37:05;;;;;;;2.40;1.60;;;;;;;11.83;68.83;100428.72;27094;1222;3048508;-67
2021/09/29 00:39:33;;;;;;;2.50;1.30;;;;;;;12.44;67.16;100430.52;27062;1223;3027896;-68
2021/09/29 00:42:04;;;;;;;5.00;1.80;;;;;;;12.98;65.31;100426.89;27083;1222;3066511;-70
2021/09/29 00:44:32;;;;;;;2.40;1.80;;;;;;;13.11;64.97;100430.24;27146;1222;3027501;-65
2021/09/29 00:47:02;;;;;;;4.50;1.70;;;;;;;12.86;65.31;100430.54;27126;1216;3025950;-68
2021/09/29 00:49:31;;;;;;;3.10;1.90;;;;;;;12.71;65.50;100434.02;27113;1222;3028110;-66
2021/09/29 00:52:02;;;;;;;3.80;2.00;;;;;;;12.53;66.10;100437.59;27111;1223;3026240;-70
2021/09/29 00:54:31;;;;;;;5.30;2.50;;;;;;;12.35;66.96;100436.08;27125;1216;3025998;-68
2021/09/29 00:57:00;;;;;;;4.00;2.10;;;;;;;12.22;67.34;100440.47;27090;1222;3025989;-71
2021/09/29 00:59:29;;;;;;;5.50;2.80;;;;;;;12.11;67.46;100439.98;27177;1222;3055820;-68
2021/09/29 01:01:59;;;;;;;5.00;1.90;;;;;;;12.04;67.74;100444.89;27095;1221;3026764;-66
2021/09/29 01:04:28;;;;;;;6.00;2.10;;;;;;;11.92;68.28;100447.23;27162;1206;3026194;-71
2021/09/29 01:07:32;;;;;;;7.10;1.90;;;;;;;11.89;68.51;100451.05;27109;1226;3054972;-66
2021/09/29 01:10:23;;;;;;;3.60;1.90;;;;;;;12.55;67.23;100451.05;27162;1225;3049363;-69
2021/09/29 01:13:11;;;;;;;3.10;1.60;;;;;;;12.94;65.59;100454.41;27200;1222;3055561;-70
2021/09/29 01:15:50;;;;;;;5.40;2.40;;;;;;;12.93;65.28;100451.83;27195;1220;3051334;-66
2021/09/29 01:18:20;;;;;;;4.50;2.40;;;;;;;12.73;65.69;100449.20;27180;1222;3070360;-68
2021/09/29 01:20:54;;;;;;;6.10;2.00;;;;;;;12.50;66.60;100450.05;27178;1220;3025886;-67
2021/09/29 01:23:41;;;;;;;4.20;2.00;;;;;;;12.32;67.37;100450.84;27190;1220;3051682;-65
2021/09/29 01:26:12;;;;;;;4.10;2.60;;;;;;;12.14;67.81;100459.48;27151;1214;3055305;-67
2021/09/29 01:28:46;;;;;;;5.40;2.40;;;;;;;12.01;68.34;100464.70;27133;1222;3026040;-68
2021/09/29 01:31:16;;;;;;;5.00;2.30;;;;;;;11.93;68.50;100463.88;27195;1222;3026038;-67
2021/09/29 01:33:45;;;;;;;5.30;1.80;;;;;;;11.84;69.19;100461.34;27233;1222;3026983;-69
2021/09/29 01:36:17;;;;;;;5.40;1.60;;;;;;;12.35;67.69;100456.48;27142;1221;3026477;-65
2021/09/29 01:38:53;;;;;;;4.50;2.00;;;;;;;12.86;66.00;100457.45;27124;1222;3048856;-65
2021/09/29 01:41:24;;;;;;;4.70;1.60;;;;;;;12.88;65.56;100456.50;27125;1221;3056147;-70
2021/09/29 01:43:53;;;;;;;3.70;1.90;;;;;;;12.71;65.98;100456.88;27199;1221;3026201;-66
2021/09/29 01:46:23;;;;;;;2.90;2.00;;;;;;;12.50;66.37;100456.55;27214;1219;3028580;-66
2021/09/29 01:49:17;;;;;;;5.00;1.90;;;;;;;12.35;66.83;100460.51;27247;1219;3051998;-67
2021/09/29 01:51:48;;;;;;;2.60;1.60;;;;;;;12.15;67.62;100462.94;27234;1219;3053335;-69
2021/09/29 01:54:18;;;;;;;3.70;2.00;;;;;;;12.00;68.34;100463.53;27222;1218;3027459;-65
2021/09/29 01:56:47;;;;;;;5.00;1.90;;;;;;;11.85;68.52;100464.23;27266;1219;3025857;-66
2021/09/29 01:59:17;;;;;;;5.30;1.70;;;;;;;11.71;68.96;100465.83;27225;1218;3026096;-66
2021/09/29 02:01:46;;;;;;;3.40;1.40;;;;;;;11.72;68.76;100466.12;27228;1219;3027680;-70
2021/09/29 02:04:17;;;;;;;1.80;1.50;;;;;;;12.21;68.18;100469.16;27246;1219;3047765;-65
2021/09/29 02:06:51;;;;;;;2.90;1.60;;;;;;;12.72;66.38;100470.33;27203;1219;3026628;-66
2021/09/29 02:09:21;;;;;;;;;;;;;;;12.71;66.04;100473.73;27231;1219;3054813;-68
2021/09/29 02:11:54;;;;;;;6.20;2.00;;;;;;;12.33;67.10;100475.92;27210;1219;3026632;-66
2021/09/29 02:14:23;;;;;;;4.70;2.00;;;;;;;12.23;67.29;100476.08;27221;1219;3028041;-67
2021/09/29 02:16:53;;;;;;;4.90;1.90;;;;;;;12.11;67.28;100478.79;27222;1219;3028340;-67
2021/09/29 02:19:23;;;;;;;6.00;1.80;;;;;;;11.88;68.44;100483.45;27245;1218;3054376;-68
2021/09/29 02:21:53;;;;;;;4.00;2.10;;;;;;;11.81;68.28;100486.59;27210;1219;3027628;-71
2021/09/29 02:24:22;;;;;;;3.30;1.90;;;;;;;11.66;68.90;100489.20;27241;1218;3026380;-68
2021/09/29 02:26:51;;;;;;;3.30;1.80;;;;;;;11.57;69.11;100485.63;27228;1218;3026366;-68
2021/09/29 02:29:21;;;;;;;2.70;1.50;;;;;;;11.50;69.62;100491.40;27205;1218;3027541;-65
2021/09/29 02:31:50;;;;;;;5.40;1.50;;;;;;;12.01;68.26;100493.31;27216;1218;3054555;-71
2021/09/29 02:34:19;;;;;;;3.00;1.90;;;;;;;12.52;66.84;100494.79;27239;1218;3028210;-67
2021/09/29 02:36:48;;;;;;;4.10;2.00;;;;;;;12.60;66.18;100498.39;27163;1219;3047835;-70
2021/09/29 02:39:18;;;;;;;3.50;1.70;;;;;;;12.46;66.58;100500.90;27218;1218;3026163;-68
2021/09/29 02:41:47;;;;;;;8.30;2.30;;;;;;;12.28;66.78;100500.05;27214;1218;3055040;-69
2021/09/29 02:44:16;;;;;;;4.20;2.10;;;;;;;12.06;67.43;100503.27;27210;1218;3026217;-67
2021/09/29 02:46:45;;;;;;;2.20;1.60;;;;;;;11.91;67.37;100500.33;27255;1219;3028114;-70
2021/09/29 02:49:14;;;;;;;6.00;1.90;;;;;;;11.73;68.32;100504.00;27233;1219;3055350;-65
2021/09/29 02:51:43;;;;;;;4.20;1.90;;;;;;;11.56;68.63;100505.31;27223;1219;3026126;-68
2021/09/29 02:54:12;;;;;;;2.40;1.90;;;;;;;11.44;69.11;100505.92;27234;1219;3051670;-65
2021/09/29 02:56:42;;;;;;;3.30;1.80;;;;;;;11.36;69.66;100513.45;27214;1216;3026460;-70
2021/09/29 02:59:11;;;;;;;3.10;1.30;;;;;;;11.86;68.54;100514.92;27218;1219;3028405;-69
2021/09/29 03:01:42;;;;;;;2.80;1.80;;;;;;;12.40;66.67;100505.39;27238;1219;3026674;-67
2021/09/29 03:04:12;;;;;;;6.10;1.80;;;;;;;12.43;66.25;100509.14;27233;1219;3027267;-64
2021/09/29 03:06:41;;;;;;;3.30;2.20;;;;;;;12.29;66.46;100514.93;27232;1212;3026505;-69
2021/09/29 03:09:09;;;;;;;3.50;2.00;;;;;;;12.13;67.10;100519.58;27200;1218;3051543;-68
2021/09/29 03:11:41;;;;;;;5.00;2.20;;;;;;;11.96;67.06;100519.91;27230;1218;3026016;-68
2021/09/29 03:14:10;;;;;;;3.40;1.70;;;;;;;11.78;67.69;100522.85;27303;1218;3027257;-70
2021/09/29 03:16:39;;;;;;;3.20;2.20;;;;;;;11.59;68.32;100523.93;27264;1218;3052552;-67
2021/09/29 03:19:08;;;;;;;3.90;1.90;;;;;;;11.43;68.97;100517.69;27228;1219;3026575;-67
2021/09/29 03:21:37;;;;;;;5.80;1.90;;;;;;;11.34;69.21;100519.54;27223;1218;3028199;-70
2021/09/29 03:24:06;;;;;;;3.80;1.80;;;;;;;11.27;69.61;100523.17;27206;1218;3054976;-63
2021/09/29 03:26:35;;;;;;;5.00;1.60;;;;;;;11.84;68.21;100519.44;27207;1213;3026706;-69
2021/09/29 03:29:04;;;;;;;2.40;1.70;;;;;;;12.35;66.55;100521.66;27195;1219;3050568;-67
2021/09/29 03:31:33;;;;;;;4.00;1.70;;;;;;;12.45;66.07;100521.31;27208;1219;3028320;-70
2021/09/29 03:34:02;;;;;;;3.20;1.90;;;;;;;12.34;66.03;100521.71;27211;1219;3058513;-68
2021/09/29 03:36:31;;;;;;;2.90;1.90;;;;;;;12.06;66.97;100528.91;27200;1218;3026948;-68
2021/09/29 03:39:00;;;;;;;4.50;2.10;;;;;;;11.83;67.57;100535.48;27204;1219;3050095;-70
2021/09/29 03:41:31;;;;;;;4.10;2.20;;;;;;;11.72;67.63;100532.98;27226;1219;3028135;-70
2021/09/29 03:44:00;;;;;;;4.50;2.10;;;;;;;11.63;67.90;100534.64;27205;1218;3027443;-68
2021/09/29 03:46:29;;;;;;;8.80;2.30;;;;;;;11.48;68.44;100538.69;27227;1219;3054095;-69
2021/09/29 03:48:58;;;;;;;5.60;1.80;;;;;;;11.35;68.91;100541.73;27224;1219;3028329;-71
2021/09/29 03:51:27;;;;;;;2.40;1.50;;;;;;;11.26;69.02;100541.67;27268;1219;3051917;-66
2021/09/29 03:53:58;;;;;;;1.80;1.60;;;;;;;11.70;68.17;100545.02;27423;1213;3025958;-65
2021/09/29 03:56:27;;;;;;;6.20;1.70;;;;;;;12.33;66.34;100547.39;27459;1216;3025755;-66
2021/09/29 03:58:56;;;;;;;7.90;2.00;;;;;;;12.29;65.60;100549.34;27496;1218;3026471;-66
2021/09/29 04:01:25;;;;;;;3.90;2.00;;;;;;;12.17;66.05;100549.96;27310;1219;3026154;-67
2021/09/29 04:03:54;;;;;;;6.60;1.90;;;;;;;12.04;66.10;100551.27;27217;1219;3057280;-66
2021/09/29 04:06:23;;;;;;;5.20;2.00;;;;;;;11.89;66.43;100550.27;27216;1219;3026264;-69
2021/09/29 04:08:52;;;;;;;3.90;2.20;;;;;;;11.71;66.89;100552.50;27242;1218;3026293;-69
2021/09/29 04:11:21;;;;;;;5.00;2.40;;;;;;;11.54;67.24;100554.55;27216;1219;3055714;-66
2021/09/29 04:13:51;;;;;;;5.40;2.20;;;;;;;11.45;67.44;100552.68;27252;1219;3027337;-71
2021/09/29 04:16:20;;;;;;;4.40;2.50;;;;;;;11.27;68.15;100559.48;27275;1218;3029310;-65
2021/09/29 04:18:49;;;;;;;8.10;2.50;;;;;;;11.18;68.27;100560.61;27217;1219;3058125;-66
2021/09/29 04:21:20;;;;;;;5.40;1.90;;;;;;;11.09;69.09;100560.85;27239;1219;3026218;-67
2021/09/29 04:23:49;;;;;;;3.10;1.70;;;;;;;11.58;68.03;100559.98;27199;1218;3025814;-68
2021/09/29 04:26:18;;;;;;;4.30;1.80;;;;;;;12.18;66.29;100561.30;27250;1219;3057525;-65
2021/09/29 04:28:47;;;;;;;3.70;2.20;;;;;;;12.17;65.43;100562.77;27205;1219;3027507;-70
2021/09/29 04:31:16;;;;;;;5.50;2.50;;;;;;;12.11;65.61;100565.40;27227;1220;3051925;-68
2021/09/29 04:33:45;;;;;;;5.00;2.50;;;;;;;11.89;65.99;100565.71;27252;1218;3028137;-72
2021/09/29 04:36:14;;;;;;;4.20;2.40;;;;;;;11.69;66.16;100569.98;27249;1219;3053594;-67
2021/09/29 04:38:43;;;;;;;3.70;2.30;;;;;;;11.54;66.74;100569.84;27226;1218;3025799;-69
2021/09/29 04:41:12;;;;;;;5.80;2.90;;;;;;;11.37;67.01;100571.33;27207;1218;3046974;-68
2021/09/29 04:43:41;;;;;;;6.30;2.50;;;;;;;11.25;67.79;100574.65;27218;1218;3027250;-69
2021/09/29 04:46:10;;;;;;;4.60;2.80;;;;;;;11.22;67.91;100576.89;27250;1219;3070169;-69
2021/09/29 04:48:39;;;;;;;9.60;2.80;;;;;;;11.20;67.92;100575.61;27222;1219;3028887;-69
2021/09/29 04:51:08;;;;;;;2.80;2.40;;;;;;;11.19;67.88;100575.46;27224;1219;3052567;-67
2021/09/29 04:53:38;;;;;;;5.00;2.40;;;;;;;11.16;68.05;100575.23;27222;1212;3025959;-71
2021/09/29 04:56:07;;;;;;;4.50;2.10;;;;;;;11.76;66.72;100573.17;27240;1219;3052132;-65
2021/09/29 04:58:36;;;;;;;5.50;2.20;;;;;;;12.23;64.61;100576.86;27221;1219;3027907;-67
2021/09/29 05:01:06;;;;;;;5.10;2.50;;;;;;;12.21;64.73;100576.25;27239;1219;3027029;-71
2021/09/29 05:03:34;;;;;;;3.10;2.50;;;;;;;12.22;64.37;100578.84;27256;1218;3026128;-68
2021/09/29 05:06:04;;;;;;;6.90;3.20;;;;;;;12.03;64.80;100581.20;27215;1219;3053300;-68
2021/09/29 05:08:34;;;;;;;8.70;4.10;;;;;;;11.84;65.53;100584.55;27207;1219;3026552;-69
2021/09/29 05:11:04;;;;;;;4.60;3.50;;;;;;;11.80;65.43;100579.28;27271;1210;3026945;-67
2021/09/29 05:13:33;;;;;;;4.90;3.00;;;;;;;11.68;65.71;100581.79;27253;1218;3027285;-72
2021/09/29 05:16:03;;;;;;;5.10;3.20;;;;;;;11.61;65.87;100586.17;27200;1218;3027585;-66
2021/09/29 05:18:51;;;;;;;4.70;3.10;;;;;;;11.49;66.71;100589.36;27242;1218;3051727;-67
2021/09/29 05:21:20;;;;;;;5.50;3.40;;;;;;;11.44;66.63;100589.94;27231;1218;3027653;-66
2021/09/29 05:23:49;;;;;;;7.70;3.00;;;;;;;11.41;66.55;100594.98;27252;1218;3070576;-69
2021/09/29 05:26:18;;;;;;;4.00;3.20;;;;;;;11.35;66.81;100594.73;27265;1219;3026406;-70
2021/09/29 05:28:51;;;;;;;5.80;2.40;;;;;;;11.30;66.98;100595.33;27257;1218;3051764;-71
2021/09/29 05:31:20;;;;;;;5.90;2.50;;;;;;;11.87;65.91;100594.25;27242;1218;3029356;-67
2021/09/29 05:35:21;;;;;;;5.20;3.00;;;;;;;12.71;63.22;100591.33;34198;1212;3025469;-69
2021/09/29 05:37:50;;;;;;;6.40;4.30;;;;;;;12.86;62.54;100595.84;27251;1212;3026691;-69
2021/09/29 05:40:19;;;;;;;3.70;3.20;;;;;;;12.81;61.86;100597.66;27272;1214;3026026;-66
2021/09/29 05:42:49;;;;;;;8.70;3.70;;;;;;;12.43;63.24;100607.35;27313;1214;3046752;-67
2021/09/29 05:45:18;;;;;;;3.90;3.20;;;;;;;12.24;63.87;100603.71;27326;1209;3025900;-71
2021/09/29 05:47:47;;;;;;;5.70;3.80;;;;;;;12.11;64.40;100604.19;27279;1213;3067836;-69
2021/09/29 05:50:16;;;;;;;7.00;3.60;;;;;;;11.96;64.96;100609.98;27335;1206;3028989;-69
2021/09/29 05:52:45;;;;;;;10.10;3.60;;;;;;;11.91;64.98;100610.56;27303;1212;3048374;-68
2021/09/29 05:55:14;;;;;;;6.00;3.50;;;;;;;11.84;65.07;100618.96;27304;1214;3026472;-70
2021/09/29 05:57:43;;;;;;;7.30;3.80;;;;;;;11.74;65.46;100619.08;27296;1212;3028076;-73
2021/09/29 06:00:13;;;;;;;8.30;3.60;;;;;;;11.65;65.46;100618.95;27317;1213;3049711;-68
2021/09/29 06:02:43;;;;;;;6.50;4.20;;;;;;;11.55;65.92;100619.77;27304;1212;3026788;-69
2021/09/29 06:05:11;;;;;;;7.50;3.50;;;;;;;11.54;65.55;100621.20;27319;1212;3026541;-72
2021/09/29 06:07:40;;;;;;;7.00;4.40;;;;;;;11.54;66.14;100621.40;27309;1215;3052072;-67
2021/09/29 06:10:09;;;;;;;8.40;4.40;;;;;;;11.47;66.23;100623.48;27272;1213;3028649;-67
2021/09/29 06:12:38;;;;;;;10.80;4.50;;;;;;;11.45;66.33;100627.95;27355;1215;3052128;-68
2021/09/29 06:15:09;;;;;;;4.10;2.90;;;;;;;11.42;66.15;100624.59;27306;1212;3026315;-70
2021/09/29 06:17:43;;;;;;;7.20;3.10;;;;;;;11.92;64.83;100629.64;27320;1207;3026047;-69
2021/09/29 06:20:13;;;;;;;11.70;3.70;;;;;;;12.51;62.65;100625.76;27287;1212;3048502;-67
2021/09/29 06:22:42;;;;;;;4.70;3.30;;;;;;;12.66;62.11;100626.38;27294;1206;3026033;-70
2021/09/29 06:25:11;;;;;;;7.10;3.90;;;;;;;12.62;62.04;100629.73;27317;1212;3026722;-69
2021/09/29 06:27:40;;;;;;;6.30;3.40;;;;;;;12.46;62.66;100634.39;27287;1212;3050226;-68
2021/09/29 06:30:10;;;;;;;5.20;3.70;;;;;;;12.41;62.63;100633.45;27296;1215;3026333;-69
2021/09/29 06:32:42;;;;;;;5.40;3.90;;;;;;;12.31;62.48;100634.46;27260;1216;3070737;-69
2021/09/29 06:35:11;;;;;;;6.30;3.90;;;;;;;12.17;62.85;100639.54;27289;1214;3026080;-68
2021/09/29 06:37:44;;;;;;;6.60;4.10;;;;;;;12.05;63.28;100641.69;27290;1215;3052078;-68
2021/09/29 06:40:15;;;;;;;8.40;4.10;;;;;;;11.99;63.44;100646.36;27303;1215;3028231;-69
2021/09/29 06:42:44;;;;;;;6.90;3.90;;;;;;;11.86;63.63;100642.35;27342;1212;3025950;-66
2021/09/29 06:45:13;;;;;;;9.50;4.30;;;;;;;11.82;63.88;100644.86;27311;1215;3027067;-69
2021/09/29 06:47:45;;;;;;;7.70;4.40;;;;;;;11.80;64.35;100648.98;27277;1215;3070674;-67
2021/09/29 06:50:16;;;;;;;9.40;3.90;;;;;;;11.88;64.00;100649.84;27303;1214;3026857;-70
2021/09/29 06:52:45;;;;;;;5.90;4.10;;;;;;;11.92;63.83;100652.64;27323;1214;3025777;-65
2021/09/29 06:55:14;;;;;;;6.90;4.30;;;;;;;11.90;63.83;100653.92;27301;1216;3027496;-69
2021/09/29 06:57:44;;;;;;;5.90;4.20;;;;;;;11.80;64.14;100653.02;27293;1215;3049382;-69
2021/09/29 07:00:14;;;;;;;9.70;4.80;;;;;;;11.88;63.80;100652.83;27325;1214;3027228;-69
2021/09/29 07:02:45;;;;;;;8.60;4.40;;;;;;;11.89;63.74;100654.88;27353;1214;3067875;-69
2021/09/29 07:05:14;;;;;;;7.40;4.60;;;;;;;11.84;63.87;100655.80;27370;1214;3027576;-66
2021/09/29 07:07:43;;;;;;;5.40;4.60;;;;;;;11.87;63.50;100659.38;27274;1216;3027163;-66
2021/09/29 07:10:13;;;;;;;9.00;4.50;;;;;;;11.82;63.62;100659.07;27318;1215;3028511;-68
2021/09/29 07:12:43;;;;;;;8.60;4.30;;;;;;;11.80;64.01;100659.68;27293;1219;3027516;-68
2021/09/29 07:15:12;;;;;;;7.10;4.50;;;;;;;11.81;64.00;100656.46;27291;1215;3053411;-72
2021/09/29 07:17:58;;;;;;;9.60;5.60;;;;;;;11.81;64.06;100662.28;27285;1214;3054842;-66
2021/09/29 07:20:34;;;;;;;10.20;4.80;;;;;;;11.88;64.04;100665.10;27334;1215;3058958;-68
2021/09/29 07:23:07;;;;;;;7.00;4.40;;;;;;;11.95;63.56;100660.24;27472;1214;3028169;-70
2021/09/29 07:25:37;;;;;;;9.10;5.40;;;;;;;11.96;63.33;100662.27;27764;1214;3052436;-66
2021/09/29 07:28:06;;;;;;;9.00;5.10;;;;;;;11.85;63.75;100661.02;27657;1214;3026192;-65
2021/09/29 07:30:35;;;;;;;13.70;5.10;;;;;;;11.82;64.20;100663.08;27289;1215;3026563;-67
2021/09/29 07:33:07;;;;;;;9.20;5.20;;;;;;;11.84;64.19;100666.69;27288;1214;3053741;-66
2021/09/29 07:35:38;;;;;;;11.10;4.80;;;;;;;11.91;63.95;100667.78;27290;1216;3026093;-68
2021/09/29 07:38:10;;;;;;;;;;;;;;;11.96;63.95;100668.45;27301;1214;3051893;-69
2021/09/29 07:40:41;;;;;;;8.70;5.10;;;;;;;11.93;63.65;100672.58;27286;1207;3027514;-65
2021/09/29 07:43:10;;;;;;;10.90;5.20;;;;;;;12.04;63.21;100673.18;27316;1216;3056287;-65
2021/09/29 07:45:40;;;;;;;12.60;4.80;;;;;;;12.02;63.57;100672.89;27274;1215;3029226;-62
2021/09/29 07:48:09;;;;;;;8.70;5.20;;;;;;;12.02;63.29;100675.20;27313;1214;3028816;-68
2021/09/29 07:50:37;;;;;;;15.10;5.30;;;;;;;12.06;63.55;100676.92;27302;1214;3054955;-68
2021/09/29 07:53:06;;;;;;;9.50;4.60;;;;;;;12.09;63.07;100677.51;27273;1215;3025953;-68
2021/09/29 07:55:38;;;;;;;8.10;4.70;;;;;;;12.06;63.21;100682.71;27291;1216;3054214;-64
2021/09/29 07:58:06;;;;;;;7.30;4.80;;;;;;;12.05;63.13;100684.02;27284;1215;3025771;-72
2021/09/29 08:00:35;;;;;;;12.30;4.80;;;;;;;12.07;62.78;100678.48;27305;1215;3050933;-67
2021/09/29 08:03:04;;;;;;;7.10;4.60;;;;;;;12.07;62.94;100685.52;27293;1214;3029590;-65
2021/09/29 08:05:33;;;;;;;7.90;4.30;;;;;;;12.11;63.00;100685.27;27288;1206;3050397;-69
2021/09/29 08:08:03;;;;;;;6.30;4.70;;;;;;;12.20;62.73;100684.19;27292;1214;3026580;-69
2021/09/29 08:10:42;;;;;;;10.30;4.70;;;;;;;12.12;62.56;100679.63;27248;1215;3070641;-66
2021/09/29 08:13:12;;;;;;;13.30;5.10;;;;;;;12.13;62.59;100688.02;27237;1215;3027040;-65
2021/09/29 08:15:40;;;;;;;7.00;4.60;;;;;;;12.16;62.54;100686.80;27287;1216;3026148;-66
2021/09/29 08:18:09;;;;;;;8.50;4.80;;;;;;;12.17;62.42;100685.55;27246;1216;3067298;-71
2021/09/29 08:20:39;;;;;;;10.40;5.00;;;;;;;12.22;62.42;100687.40;27274;1214;3027969;-70
2021/09/29 08:23:13;;;;;;;6.40;4.70;;;;;;;12.26;62.50;100689.34;27305;1215;3053670;-71
2021/09/29 08:26:10;;;;;;;15.10;5.30;;;;;;;12.33;62.22;100692.84;27253;1214;3068888;-69
2021/09/29 08:28:41;;;;;;;8.40;5.40;;;;;;;12.42;62.01;100691.03;27273;1215;3048520;-69
2021/09/29 08:34:00;;;;;;;9.20;5.60;;;;;;;12.29;61.98;100691.98;27249;1214;3026375;-64
2021/09/29 08:39:11;;;;;;;9.50;5.40;;;;;;;12.22;62.19;100687.77;27285;1215;3025933;-65
2021/09/29 08:44:26;;;;;;;8.70;5.70;;;;;;;12.18;62.29;100691.96;27304;1216;3055204;-63
2021/09/29 08:47:11;;;;;;;8.90;5.10;;;;;;;12.20;62.04;100690.14;27267;1215;3049300;-69
2021/09/29 08:49:52;;;;;;;10.20;5.80;;;;;;;12.25;62.06;100688.50;27309;1215;3053126;-69
2021/09/29 08:55:42;;;;;;;11.90;5.40;;;;;;;12.28;62.43;100685.40;27277;1215;3070936;-69
2021/09/29 09:14:44;;;;;;;10.10;5.40;;;;;;;12.34;62.35;100678.95;27297;1215;3049334;-69
2021/09/29 09:18:49;;;;;;;10.20;5.30;;;;;;;13.22;59.46;100683.32;27229;1215;3068767;-64
2021/09/29 09:21:19;;;;;;;7.30;4.50;;;;;;;13.31;59.06;100682.85;27339;1214;3048619;-65
2021/09/29 09:23:48;;;;;;;15.60;5.10;;;;;;;13.40;58.70;100688.21;27342;1214;3028118;-67
2021/09/29 09:26:33;;;;;;;9.90;4.60;;;;;;;13.42;58.35;100686.51;27301;1214;3056401;-70
2021/09/29 09:29:04;;;;;;;8.50;4.70;;;;;;;13.51;58.18;100685.70;27340;1215;3026258;-67
2021/09/29 09:31:33;;;;;;;8.30;4.40;;;;;;;13.55;57.84;100688.48;27268;1215;3051974;-69
2021/09/29 09:34:04;;;;;;;10.00;4.30;;;;;;;13.53;57.92;100688.41;27260;1215;3025984;-66
2021/09/29 09:36:37;;;;;;;12.50;4.40;;;;;;;13.54;57.65;100688.16;27303;1215;3028120;-70
2021/09/29 09:39:07;;;;;;;8.10;4.10;;;;;;;13.56;57.54;100689.97;27228;1215;3026431;-67
2021/09/29 09:41:41;;;;;;;7.40;4.00;;;;;;;13.57;57.44;100692.59;27301;1213;3028312;-68
2021/09/29 09:44:10;;;;;;;9.20;4.30;;;;;;;13.59;57.38;100692.85;27253;1214;3027026;-66
2021/09/29 09:46:39;;;;;;;9.70;4.50;;;;;;;13.53;57.62;100689.43;27314;1206;3025787;-68
2021/09/29 09:49:09;;;;;;;5.80;4.10;;;;;;;13.60;57.47;100695.61;27319;1215;3052083;-70
2021/09/29 09:51:49;;;;;;;7.70;3.70;;;;;;;13.67;57.20;100689.93;27312;1215;3025892;-68
2021/09/29 09:54:19;;;;;;;9.90;4.60;;;;;;;13.81;56.42;100689.17;27478;1215;3070908;-68
2021/09/29 09:56:53;;;;;;;7.50;4.00;;;;;;;13.78;56.19;100690.40;27546;1209;3025477;-69
2021/09/29 09:59:30;;;;;;;10.70;3.80;;;;;;;13.77;56.40;100685.33;27546;1214;3050719;-71
2021/09/29 10:01:59;;;;;;;9.30;3.90;;;;;;;13.79;56.17;100690.87;27274;1214;3071108;-71
2021/09/29 10:04:28;;;;;;;8.20;3.70;;;;;;;13.79;55.87;100685.61;27311;1215;3026488;-68
2021/09/29 10:06:57;;;;;;;9.30;4.30;;;;;;;13.80;56.32;100690.45;27346;1214;3049011;-71
2021/09/29 10:09:37;;;;;;;10.20;4.10;;;;;;;13.82;56.60;100691.23;27329;1214;3025999;-72
2021/09/29 10:28:41;;;;;;;10.80;3.40;;;;;;;13.90;55.94;100685.71;27254;1215;3057091;-70
2021/09/29 10:33:52;;;;;;;5.40;3.50;;;;;;;14.02;56.02;100687.54;27280;1214;3026517;-70
2021/09/29 10:36:27;;;;;;;7.80;4.00;;;;;;;14.06;55.26;100682.67;27292;1215;3052077;-73
2021/09/29 10:45:10;;;;;;;9.30;3.70;;;;;;;13.98;55.31;100682.30;27312;1216;3052444;-69
2021/09/29 10:47:50;;;;;;;6.40;3.40;;;;;;;13.82;56.01;100687.55;27325;1213;3054503;-71
2021/09/29 10:51:14;;;;;;;8.00;3.60;;;;;;;13.93;56.13;100684.30;27307;1215;3058957;-70
2021/09/29 11:05:26;;;;;;;7.40;3.30;;;;;;;14.15;54.86;100681.36;27341;1214;3049639;-68
2021/09/29 11:30:34;;;;;;;7.80;3.10;;;;;;;14.10;53.77;100681.11;27291;1215;3054239;-70
2021/09/29 11:33:23;;;;;;;6.20;3.00;;;;;;;14.01;54.24;100679.98;27259;1215;3026260;-69
2021/09/29 11:36:27;;;;;;;4.10;2.70;;;;;;;14.07;54.34;100680.54;27237;1215;3058932;-67
2021/09/29 12:09:52;;;;;;;2.50;1.70;;;;;;;16.10;46.05;100658.35;27310;1214;3070592;-66
2021/09/29 12:12:26;;;;;;;2.50;1.60;;;;;;;16.28;44.86;100660.77;27357;1215;3052566;-67
2021/09/29 12:15:07;;;;;;;3.10;1.80;;;;;;;16.41;44.62;100660.06;27322;1215;3054490;-71
2021/09/29 12:17:57;;;;;;;3.60;2.00;;;;;;;16.44;44.95;100656.70;27300;1215;3052306;-68
2021/09/29 12:20:28;;;;;;;4.80;2.20;;;;;;;16.30;45.37;100661.63;27353;1215;3027816;-70
2021/09/29 12:22:59;;;;;;;3.00;2.20;;;;;;;16.01;46.32;100663.52;27274;1214;3025851;-68
2021/09/29 12:25:38;;;;;;;6.40;2.90;;;;;;;15.91;46.82;100662.20;27365;1215;3028048;-66
2021/09/29 12:32:01;;;;;;;8.60;2.90;;;;;;;15.68;47.23;100665.02;27454;1215;3070958;-69
2021/09/29 12:36:31;;;;;;;10.50;3.60;;;;;;;15.58;47.41;100664.61;27294;1206;3026262;-68
2021/09/29 12:39:01;;;;;;;8.50;3.60;;;;;;;15.52;48.02;100664.14;27342;1213;3051597;-67
2021/09/29 12:41:31;;;;;;;7.80;3.20;;;;;;;15.52;48.02;100669.75;27362;1206;3026239;-67
2021/09/29 12:44:03;;;;;;;9.20;3.70;;;;;;;15.39;47.77;100662.08;27293;1215;3027190;-67
2021/09/29 12:46:35;;;;;;;5.90;3.00;;;;;;;15.36;48.18;100663.55;27379;1215;3026309;-74
2021/09/29 12:49:13;;;;;;;7.20;3.00;;;;;;;15.13;48.28;100666.84;27325;1215;3028402;-70
2021/09/29 12:51:43;;;;;;;4.90;2.70;;;;;;;15.05;48.50;100665.73;27277;1215;3069389;-68
2021/09/29 12:54:17;;;;;;;7.00;3.30;;;;;;;14.95;48.59;100668.96;27317;1206;3026065;-67
2021/09/29 12:56:47;;;;;;;5.70;2.70;;;;;;;14.81;49.18;100667.55;27368;1215;3052128;-68
2021/09/29 12:59:15;;;;;;;13.10;3.00;;;;;;;14.73;49.27;100668.21;27308;1214;3025800;-71
2021/09/29 13:01:44;;;;;;;7.00;2.80;;;;;;;14.72;49.24;100671.77;27344;1215;3051020;-67
2021/09/29 13:04:13;;;;;;;4.90;2.80;;;;;;;14.69;49.58;100666.64;27384;1206;3026056;-72
2021/09/29 13:06:42;;;;;;;6.10;3.20;;;;;;;14.59;49.78;100671.59;27317;1216;3069066;-69
2021/09/29 13:09:11;;;;;;;5.10;2.70;;;;;;;14.51;50.00;100671.70;27382;1214;3027755;-71
2021/09/29 13:11:41;;;;;;;12.60;2.40;;;;;;;14.59;49.56;100672.67;27358;1215;3053210;-68
2021/09/29 13:14:09;;;;;;;7.60;2.90;;;;;;;14.56;49.66;100670.73;27384;1214;3028481;-69
2021/09/29 13:16:39;;;;;;;5.80;2.70;;;;;;;14.49;49.90;100670.58;27303;1215;3054755;-69
2021/09/29 13:19:22;;;;;;;9.20;3.10;;;;;;;14.45;50.33;100670.11;27300;1206;3026135;-69
2021/09/29 13:21:57;;;;;;;13.00;2.80;;;;;;;14.49;50.15;100673.45;27360;1215;3049718;-69
2021/09/29 13:38:16;;;;;;;5.60;2.20;;;;;;;14.58;48.55;100667.23;27334;1215;3056303;-74
2021/09/29 13:40:45;;;;;;;7.50;2.30;;;;;;;14.65;48.55;100667.42;27301;1215;3026016;-70
2021/09/29 13:43:15;;;;;;;6.70;2.30;;;;;;;14.58;48.55;100664.98;27325;1216;3054920;-69
2021/09/29 13:45:44;;;;;;;8.00;2.50;;;;;;;14.54;48.16;100663.94;27377;1209;3026060;-73
2021/09/29 13:48:13;;;;;;;9.40;2.30;;;;;;;14.50;48.08;100669.27;27364;1214;3026583;-72
2021/09/29 13:50:42;;;;;;;5.70;2.00;;;;;;;14.69;48.05;100669.08;27322;1215;3026190;-64
2021/09/29 13:53:12;;;;;;;9.60;2.10;;;;;;;14.76;46.99;100669.39;27313;1215;3054611;-69